Time;durP1;ratioP1;P1;durP2;ratioP2;P2;SDS_P1;SDS_P2;PMS_P1;PMS_P2;Temp;Humidity;BMP_temperature;BMP_pressure;BME280_temperature;BME280_humidity;BME280_pressure;Samples;Min_cycle;Max_cycle;Signal;HPM_P1;HPM_P2
2020/12/15 00:01:20;;;;;;;3.17;2.73;;;8.40;99.90;;;;;;4974954;28;20215;-67
2020/12/15 00:03:47;;;;;;;5.70;2.95;;;8.50;99.90;;;;;;4974867;28;20797;-67
2020/12/15 00:06:12;;;;;;;3.63;3.13;;;8.30;99.90;;;;;;4975213;28;20275;-64
2020/12/15 00:08:38;;;;;;;3.50;3.13;;;8.30;99.90;;;;;;4975212;28;20610;-64
2020/12/15 00:11:03;;;;;;;4.80;3.90;;;8.20;99.90;;;;;;4975013;28;20175;-64
2020/12/15 00:13:29;;;;;;;10.20;7.30;;;8.20;99.90;;;;;;4974680;28;20180;-64
2020/12/15 00:15:54;;;;;;;76.30;41.30;;;8.30;99.90;;;;;;4974849;28;20266;-64
2020/12/15 00:18:20;;;;;;;3.10;2.80;;;8.30;99.90;;;;;;4974815;28;20679;-64
2020/12/15 00:20:45;;;;;;;3.13;2.80;;;8.30;99.90;;;;;;4974691;28;20637;-64
2020/12/15 00:23:11;;;;;;;3.83;3.30;;;8.30;99.90;;;;;;4974586;28;20204;-64
2020/12/15 00:25:36;;;;;;;3.60;3.20;;;8.40;99.90;;;;;;4974804;28;20184;-64
2020/12/15 00:28:02;;;;;;;4.20;2.90;;;8.40;99.90;;;;;;4973626;28;20234;-64
2020/12/15 00:30:27;;;;;;;3.57;3.23;;;8.50;99.90;;;;;;4974810;28;20183;-64
2020/12/15 00:32:53;;;;;;;3.70;3.40;;;8.50;99.90;;;;;;4974722;28;20215;-64
2020/12/15 00:35:19;;;;;;;3.33;3.03;;;8.40;99.90;;;;;;4974531;28;20188;-64
2020/12/15 00:37:45;;;;;;;4.35;3.05;;;8.30;99.90;;;;;;4975033;28;20184;-64
2020/12/15 00:40:11;;;;;;;2.80;2.60;;;8.40;99.90;;;;;;4974804;28;20270;-66
2020/12/15 00:42:36;;;;;;;5.30;3.10;;;8.40;99.90;;;;;;4973739;28;20283;-66
2020/12/15 00:45:03;;;;;;;4.50;3.57;;;8.40;99.90;;;;;;4974422;28;20214;-65
2020/12/15 00:47:29;;;;;;;3.50;3.10;;;8.40;99.90;;;;;;4974661;28;20259;-67
2020/12/15 00:49:54;;;;;;;3.53;3.20;;;8.20;99.90;;;;;;4974475;28;20228;-67
2020/12/15 00:52:28;;;;;;;4.20;2.40;;;8.10;99.90;;;;;;4974507;28;20188;-67
2020/12/15 00:54:54;;;;;;;3.88;3.20;;;8.10;1.00;;;;;;4974267;28;20179;-67
2020/12/15 00:57:20;;;;;;;4.43;3.43;;;8.10;1.00;;;;;;4973524;28;20203;-65
2020/12/15 00:59:45;;;;;;;3.50;3.20;;;8.10;1.00;;;;;;4973382;28;20307;-65
2020/12/15 01:02:11;;;;;;;4.33;2.83;;;8.00;1.00;;;;;;4974326;28;20529;-65
2020/12/15 01:04:37;;;;;;;3.50;3.10;;;8.10;1.00;;;;;;4974308;28;20203;-65
2020/12/15 01:07:03;;;;;;;3.63;3.10;;;8.10;1.00;;;;;;4975108;28;20884;-67
2020/12/15 01:09:29;;;;;;;3.47;3.17;;;8.00;1.00;;;;;;4978338;28;20254;-67
2020/12/15 01:11:56;;;;;;;4.10;2.93;;;8.00;1.00;;;;;;4978096;28;20183;-65
2020/12/15 01:14:22;;;;;;;3.97;3.58;;;8.00;1.00;;;;;;4977848;28;20176;-67
2020/12/15 01:16:48;;;;;;;3.38;3.08;;;8.00;1.00;;;;;;4978005;28;20180;-65
2020/12/15 01:19:13;;;;;;;4.50;3.50;;;8.10;1.00;;;;;;4977942;28;20187;-65
2020/12/15 01:21:39;;;;;;;3.30;2.80;;;8.30;1.00;;;;;;4977926;28;20522;-65
2020/12/15 01:24:05;;;;;;;13.10;8.33;;;8.30;1.00;;;;;;4977592;28;20172;-65
2020/12/15 01:26:30;;;;;;;14.13;9.03;;;8.30;99.90;;;;;;4977746;28;20198;-65
2020/12/15 01:28:56;;;;;;;11.93;7.73;;;8.30;99.90;;;;;;4977749;28;20184;-65
2020/12/15 01:31:29;;;;;;;4.80;3.17;;;8.40;99.90;;;;;;4977811;28;20247;-65
2020/12/15 01:33:54;;;;;;;3.80;3.05;;;8.40;99.90;;;;;;4977498;28;20211;-65
2020/12/15 01:36:28;;;;;;;3.00;2.70;;;8.30;99.90;;;;;;4977745;28;20196;-65
2020/12/15 01:38:53;;;;;;;3.53;3.20;;;8.40;1.00;;;;;;4977660;28;20242;-64
2020/12/15 01:41:20;;;;;;;5.33;3.33;;;8.40;99.90;;;;;;4977605;28;20207;-65
2020/12/15 01:43:56;;;;;;;5.35;3.58;;;8.40;99.90;;;;;;4976237;28;20249;-65
2020/12/15 01:46:23;;;;;;;4.38;3.65;;;8.40;1.00;;;;;;4977449;28;20210;-65
2020/12/15 01:48:48;;;;;;;4.80;3.53;;;8.40;1.00;;;;;;4976514;28;20176;-67
2020/12/15 01:51:15;;;;;;;5.50;4.37;;;8.40;1.00;;;;;;4977398;28;20636;-64
2020/12/15 01:53:42;;;;;;;4.70;3.78;;;8.50;1.00;;;;;;4977532;28;20184;-63
2020/12/15 01:56:08;;;;;;;5.22;4.05;;;8.60;1.00;;;;;;4977398;28;20172;-62
2020/12/15 01:58:34;;;;;;;4.03;3.42;;;8.50;1.00;;;;;;4977185;28;20188;-65
2020/12/15 02:01:00;;;;;;;7.53;4.13;;;8.60;1.00;;;;;;4977228;28;20226;-65
2020/12/15 02:03:26;;;;;;;4.20;3.27;;;8.40;1.00;;;;;;4977283;28;20865;-65
2020/12/15 02:05:52;;;;;;;3.87;3.37;;;8.30;1.00;;;;;;4977396;28;20191;-62
2020/12/15 02:08:17;;;;;;;3.80;3.40;;;8.20;1.00;;;;;;4977227;28;20184;-62
2020/12/15 02:10:43;;;;;;;4.47;3.33;;;8.30;1.00;;;;;;4976142;28;20435;-61
2020/12/15 02:13:09;;;;;;;3.80;2.95;;;8.20;1.00;;;;;;4976995;28;20204;-61
2020/12/15 02:15:34;;;;;;;4.87;3.33;;;8.20;1.00;;;;;;4977010;28;20184;-67
2020/12/15 02:18:00;;;;;;;4.60;3.60;;;8.30;1.00;;;;;;4977045;28;20214;-67
2020/12/15 02:20:25;;;;;;;5.20;4.30;;;8.50;1.00;;;;;;4977407;28;20204;-67
2020/12/15 02:22:51;;;;;;;4.80;3.70;;;8.40;1.00;;;;;;4976978;28;20188;-67
2020/12/15 02:25:16;;;;;;;4.63;3.90;;;8.30;1.00;;;;;;4975984;28;20184;-67
2020/12/15 02:27:42;;;;;;;4.40;3.40;;;8.40;1.00;;;;;;4977170;28;20275;-68
2020/12/15 02:30:08;;;;;;;5.87;4.40;;;8.10;1.00;;;;;;4976988;28;20692;-67
2020/12/15 02:32:37;;;;;;;5.00;3.93;;;7.80;1.00;;;;;;4975931;28;20219;-66
2020/12/15 02:35:04;;;;;;;5.78;4.40;;;7.60;1.00;;;;;;4976600;28;20203;-66
2020/12/15 02:37:29;;;;;;;9.57;4.78;;;7.50;1.00;;;;;;4976989;28;20184;-66
2020/12/15 02:39:59;;;;;;;6.13;4.20;;;7.50;1.00;;;;;;4975984;28;20204;-67
2020/12/15 02:42:28;;;;;;;4.32;3.88;;;7.50;1.00;;;;;;4976619;28;20263;-67
2020/12/15 02:44:54;;;;;;;5.78;3.95;;;7.70;1.00;;;;;;4976245;28;20191;-67
2020/12/15 02:47:19;;;;;;;4.07;2.90;;;7.80;1.00;;;;;;4976746;28;20181;-67
2020/12/15 02:49:45;;;;;;;4.00;3.47;;;7.70;1.00;;;;;;4976480;28;20641;-67
2020/12/15 02:52:10;;;;;;;4.20;3.80;;;7.80;1.00;;;;;;4975514;28;20188;-67
2020/12/15 02:54:36;;;;;;;4.97;3.93;;;7.90;1.00;;;;;;4976164;28;20195;-67
2020/12/15 02:57:01;;;;;;;4.93;3.93;;;7.80;1.00;;;;;;4976294;28;20184;-67
2020/12/15 02:59:27;;;;;;;4.87;4.27;;;8.00;1.00;;;;;;4976069;28;20211;-67
2020/12/15 03:01:52;;;;;;;6.03;4.23;;;8.30;1.00;;;;;;4976290;28;20190;-67
2020/12/15 03:04:18;;;;;;;4.67;3.67;;;8.50;1.00;;;;;;4975905;28;20191;-67
2020/12/15 03:06:44;;;;;;;4.40;3.27;;;8.70;1.00;;;;;;4975930;28;20180;-67
2020/12/15 03:09:09;;;;;;;3.70;3.33;;;8.90;1.00;;;;;;4976008;28;20179;-67
2020/12/15 03:11:36;;;;;;;3.70;3.40;;;8.90;1.00;;;;;;4975849;28;20540;-67
2020/12/15 03:14:02;;;;;;;4.22;3.70;;;9.10;1.00;;;;;;4975627;28;20187;-67
2020/12/15 03:16:28;;;;;;;3.95;3.55;;;9.20;1.00;;;;;;4975736;28;20204;-67
2020/12/15 03:18:54;;;;;;;5.37;4.70;;;9.10;1.00;;;;;;4975703;28;20226;-67
2020/12/15 03:21:21;;;;;;;4.80;3.60;;;9.20;1.00;;;;;;4975649;28;20215;-68
2020/12/15 03:23:47;;;;;;;4.68;4.10;;;9.40;1.00;;;;;;4974440;28;20190;-67
2020/12/15 03:26:12;;;;;;;4.35;3.53;;;9.40;1.00;;;;;;4974555;28;20231;-67
2020/12/15 03:28:38;;;;;;;4.13;3.73;;;9.30;99.90;;;;;;4975534;28;20176;-67
2020/12/15 03:31:04;;;;;;;5.17;3.97;;;9.30;99.90;;;;;;4974960;28;20192;-67
2020/12/15 03:33:29;;;;;;;4.27;3.00;;;9.10;99.90;;;;;;4975073;28;20184;-67
2020/12/15 03:35:55;;;;;;;4.30;3.90;;;8.90;99.90;;;;;;4975176;28;20188;-67
2020/12/15 03:38:20;;;;;;;4.20;3.80;;;8.60;99.90;;;;;;4975245;28;20246;-67
2020/12/15 03:40:46;;;;;;;4.20;3.77;;;8.40;99.90;;;;;;4975177;28;20293;-67
2020/12/15 03:43:12;;;;;;;4.80;4.07;;;8.00;1.00;;;;;;4975041;28;20184;-67
2020/12/15 03:45:44;;;;;;;5.50;3.60;;;7.80;1.00;;;;;;4975252;28;20836;-67
2020/12/15 03:48:11;;;;;;;5.70;4.53;;;7.80;1.00;;;;;;4975152;28;20188;-67
2020/12/15 03:50:37;;;;;;;4.32;3.60;;;7.70;1.00;;;;;;4975077;28;20191;-67
2020/12/15 03:53:03;;;;;;;3.70;3.30;;;7.60;1.00;;;;;;4974998;28;20199;-67
2020/12/15 03:55:28;;;;;;;4.43;4.03;;;7.60;1.00;;;;;;4974748;28;20510;-67
2020/12/15 03:57:54;;;;;;;4.43;4.03;;;7.70;1.00;;;;;;4974769;28;20435;-67
2020/12/15 04:00:19;;;;;;;4.90;4.27;;;7.70;1.00;;;;;;4974209;28;20660;-64
2020/12/15 04:02:46;;;;;;;5.10;3.60;;;7.80;1.00;;;;;;4974777;28;20648;-65
2020/12/15 04:05:12;;;;;;;5.07;4.57;;;7.90;1.00;;;;;;4974727;28;20184;-65
2020/12/15 04:07:39;;;;;;;8.77;5.07;;;8.00;1.00;;;;;;4974824;28;20179;-62
2020/12/15 04:10:05;;;;;;;4.72;3.88;;;8.00;1.00;;;;;;4974873;28;20676;-61
2020/12/15 04:12:30;;;;;;;5.30;4.07;;;7.90;1.00;;;;;;4974963;28;20283;-64
2020/12/15 04:14:56;;;;;;;4.67;3.50;;;7.80;1.00;;;;;;4974670;28;20419;-64
2020/12/15 04:17:21;;;;;;;5.10;4.60;;;7.80;1.00;;;;;;4974801;28;20522;-64
2020/12/15 04:19:47;;;;;;;4.70;3.90;;;7.90;1.00;;;;;;4974686;28;20254;-64
2020/12/15 04:22:12;;;;;;;4.20;3.63;;;8.00;1.00;;;;;;4974871;28;20176;-65
2020/12/15 04:24:38;;;;;;;4.57;4.10;;;8.10;1.00;;;;;;4974466;28;20180;-65
2020/12/15 04:27:04;;;;;;;5.40;4.00;;;8.20;1.00;;;;;;4974743;28;20180;-65
2020/12/15 04:29:30;;;;;;;5.95;3.95;;;8.20;1.00;;;;;;4973511;28;20207;-65
2020/12/15 04:31:56;;;;;;;5.20;4.03;;;8.20;1.00;;;;;;4974630;28;20258;-65
2020/12/15 04:34:21;;;;;;;5.10;3.60;;;8.00;1.00;;;;;;4974263;28;20180;-65
2020/12/15 04:36:47;;;;;;;5.20;4.47;;;8.10;1.00;;;;;;4974542;28;21025;-65
2020/12/15 04:39:12;;;;;;;4.53;4.00;;;8.10;1.00;;;;;;4974397;28;20180;-65
2020/12/15 04:41:38;;;;;;;5.67;4.33;;;8.10;1.00;;;;;;4974327;28;20208;-65
2020/12/15 04:44:05;;;;;;;6.30;5.00;;;8.00;1.00;;;;;;4978255;28;20176;-64
2020/12/15 04:46:36;;;;;;;5.07;4.13;;;8.10;1.00;;;;;;4978769;28;20183;-64
2020/12/15 04:49:07;;;;;;;4.38;3.97;;;8.00;1.00;;;;;;4978541;28;20188;-64
2020/12/15 04:51:58;;;;;;;7.60;4.30;;;8.10;1.00;;;;;;4978494;28;20286;-64
2020/12/15 04:54:32;;;;;;;6.40;3.72;;;8.00;1.00;;;;;;4973268;28;20273;-64
2020/12/15 04:57:00;;;;;;;4.85;4.03;;;8.00;1.00;;;;;;4978429;28;20641;-63
2020/12/15 04:59:32;;;;;;;5.40;4.15;;;8.10;1.00;;;;;;4978195;28;20231;-63
2020/12/15 05:01:59;;;;;;;6.22;4.68;;;8.10;1.00;;;;;;4978394;28;20227;-64
2020/12/15 05:04:26;;;;;;;5.15;4.20;;;8.00;1.00;;;;;;4977880;28;20211;-64
2020/12/15 05:06:55;;;;;;;7.18;4.65;;;8.00;1.00;;;;;;4978105;28;20586;-63
2020/12/15 05:09:26;;;;;;;5.97;4.63;;;8.00;1.00;;;;;;4978089;28;20656;-63
2020/12/15 05:11:52;;;;;;;5.80;5.05;;;7.90;1.00;;;;;;4978220;28;20211;-63
2020/12/15 05:14:17;;;;;;;6.93;5.10;;;8.00;1.00;;;;;;4977876;28;20295;-63
2020/12/15 05:16:43;;;;;;;7.27;5.70;;;8.00;1.00;;;;;;4977954;28;20219;-63
2020/12/15 05:19:08;;;;;;;6.50;5.30;;;7.90;1.00;;;;;;4977980;28;20231;-64
2020/12/15 05:21:34;;;;;;;7.50;5.97;;;7.90;1.00;;;;;;4977607;28;20255;-63
2020/12/15 05:24:00;;;;;;;5.83;5.10;;;7.90;1.00;;;;;;4977761;28;20180;-64
2020/12/15 05:26:26;;;;;;;7.82;5.72;;;8.00;1.00;;;;;;4977700;28;20572;-63
2020/12/15 05:29:03;;;;;;;6.45;5.63;;;8.00;1.00;;;;;;4977673;28;20188;-63
2020/12/15 05:31:28;;;;;;;7.55;5.50;;;8.10;1.00;;;;;;4977676;28;20517;-64
2020/12/15 05:33:56;;;;;;;5.90;4.97;;;8.10;1.00;;;;;;4977358;28;20195;-64
2020/12/15 05:36:22;;;;;;;6.80;5.25;;;8.10;1.00;;;;;;4977480;28;20520;-64
2020/12/15 05:39:05;;;;;;;6.97;5.03;;;8.20;1.00;;;;;;4977743;28;20193;-64
2020/12/15 05:41:33;;;;;;;5.10;4.43;;;8.30;1.00;;;;;;4977455;28;20601;-63
2020/12/15 05:44:00;;;;;;;5.10;4.50;;;8.40;1.00;;;;;;4977305;28;20609;-67
2020/12/15 05:46:29;;;;;;;5.97;4.65;;;8.70;1.00;;;;;;4977284;28;20180;-67
2020/12/15 05:49:06;;;;;;;7.15;5.35;;;8.70;1.00;;;;;;4977417;28;20564;-62
2020/12/15 05:51:43;;;;;;;7.28;5.18;;;8.70;1.00;;;;;;4976318;28;20195;-62
2020/12/15 05:54:11;;;;;;;6.93;5.10;;;8.70;1.00;;;;;;4976591;28;20175;-65
2020/12/15 05:56:38;;;;;;;7.78;5.60;;;8.80;1.00;;;;;;4977234;28;20576;-62
2020/12/15 05:59:18;;;;;;;6.30;4.60;;;8.70;1.00;;;;;;4977069;28;20258;-68
2020/12/15 06:02:02;;;;;;;5.70;4.50;;;8.80;1.00;;;;;;4977047;28;20203;-63
2020/12/15 06:04:28;;;;;;;4.57;4.15;;;9.00;1.00;;;;;;4976995;28;20198;-62
2020/12/15 06:06:54;;;;;;;7.43;5.83;;;9.00;1.00;;;;;;4977507;28;20268;-62
2020/12/15 06:09:20;;;;;;;6.32;5.15;;;9.00;1.00;;;;;;4976959;28;20195;-62
2020/12/15 06:11:46;;;;;;;6.97;5.93;;;9.10;1.00;;;;;;4975938;28;20184;-62
2020/12/15 06:14:14;;;;;;;8.80;5.30;;;9.10;1.00;;;;;;4976943;28;20183;-61
2020/12/15 06:16:41;;;;;;;7.25;5.40;;;9.10;1.00;;;;;;4977079;28;20194;-61
2020/12/15 06:19:08;;;;;;;5.20;4.60;;;9.10;1.00;;;;;;4977149;28;20181;-62
2020/12/15 06:21:46;;;;;;;8.52;5.15;;;9.20;1.00;;;;;;4976727;28;20226;-61
2020/12/15 06:24:11;;;;;;;6.50;5.78;;;9.10;1.00;;;;;;4977014;28;20242;-67
2020/12/15 06:26:37;;;;;;;7.73;6.23;;;9.20;1.00;;;;;;4976856;28;20180;-68
2020/12/15 06:29:06;;;;;;;10.03;6.60;;;9.00;1.00;;;;;;4976818;28;20618;-68
2020/12/15 06:31:33;;;;;;;7.93;6.85;;;8.70;1.00;;;;;;4975631;28;20254;-68
2020/12/15 06:34:01;;;;;;;8.13;6.20;;;8.70;1.00;;;;;;4976097;28;20195;-68
2020/12/15 06:36:29;;;;;;;8.80;6.57;;;8.60;1.00;;;;;;4976398;28;20180;-68
2020/12/15 06:38:55;;;;;;;6.75;5.25;;;8.60;1.00;;;;;;4976337;28;20279;-68
2020/12/15 06:41:22;;;;;;;8.70;6.65;;;8.60;1.00;;;;;;4976474;28;20222;-68
2020/12/15 06:43:48;;;;;;;7.20;6.50;;;8.70;1.00;;;;;;4976244;28;20267;-63
2020/12/15 06:46:14;;;;;;;10.13;5.70;;;8.70;1.00;;;;;;4976651;28;20226;-64
2020/12/15 06:48:43;;;;;;;6.03;5.43;;;8.70;1.00;;;;;;4976256;28;20180;-64
2020/12/15 06:51:09;;;;;;;8.30;5.47;;;8.60;1.00;;;;;;4976128;28;20439;-63
2020/12/15 06:53:42;;;;;;;5.30;4.70;;;8.40;1.00;;;;;;4977428;28;20635;-63
2020/12/15 06:56:11;;;;;;;6.88;5.63;;;8.30;1.00;;;;;;4976174;28;20698;-67
2020/12/15 06:58:37;;;;;;;6.25;5.55;;;8.40;1.00;;;;;;4974690;28;20206;-67
2020/12/15 07:01:03;;;;;;;6.77;5.63;;;8.30;1.00;;;;;;4975980;28;20204;-67
2020/12/15 07:03:37;;;;;;;6.10;4.85;;;8.30;1.00;;;;;;4975538;28;20180;-67
2020/12/15 07:06:15;;;;;;;5.75;5.18;;;8.30;9.60;;;;;;4975008;28;20188;-67
2020/12/15 07:08:42;;;;;;;5.95;5.18;;;8.50;19.40;;;;;;4975895;28;20524;-64
2020/12/15 07:11:08;;;;;;;9.57;5.25;;;8.50;8.20;;;;;;4975905;28;20180;-63
2020/12/15 07:13:34;;;;;;;7.57;5.30;;;8.40;3.80;;;;;;4975792;28;20199;-63
2020/12/15 07:16:00;;;;;;;6.68;5.43;;;8.40;11.90;;;;;;4975874;28;20184;-63
2020/12/15 07:18:30;;;;;;;6.27;5.07;;;8.40;25.30;;;;;;4975664;28;20508;-63
2020/12/15 07:20:56;;;;;;;6.00;5.20;;;8.50;26.90;;;;;;4981837;28;20223;-63
2020/12/15 07:23:22;;;;;;;5.80;5.20;;;8.50;25.20;;;;;;4988154;28;20176;-64
2020/12/15 07:25:47;;;;;;;7.10;5.47;;;8.60;23.60;;;;;;4981436;28;20431;-64
2020/12/15 07:28:13;;;;;;;7.63;5.40;;;8.60;18.00;;;;;;4978510;28;20185;-64
2020/12/15 07:30:39;;;;;;;6.70;5.27;;;8.60;5.40;;;;;;4980643;28;20180;-65
2020/12/15 07:33:05;;;;;;;9.43;5.60;;;8.40;4.80;;;;;;4978925;28;20438;-64
2020/12/15 07:35:31;;;;;;;6.15;5.07;;;8.50;13.90;;;;;;4975997;28;20191;-64
2020/12/15 07:37:57;;;;;;;6.27;5.67;;;8.50;16.20;;;;;;4979241;28;20176;-64
2020/12/15 07:40:28;;;;;;;7.03;5.18;;;8.40;20.70;;;;;;4979490;28;20463;-64
2020/12/15 07:42:57;;;;;;;7.32;5.15;;;8.30;36.10;;;;;;4979625;28;20219;-64
2020/12/15 07:45:24;;;;;;;7.60;5.85;;;8.40;56.10;;;;;;4982938;28;20216;-64
2020/12/15 07:47:51;;;;;;;6.32;5.13;;;8.40;64.50;;;;;;4989342;28;20252;-64
2020/12/15 07:50:21;;;;;;;6.95;5.97;;;8.40;77.70;;;;;;4986203;28;20180;-64
2020/12/15 07:52:47;;;;;;;8.30;6.65;;;8.50;84.70;;;;;;4976538;28;20180;-65
2020/12/15 07:55:14;;;;;;;6.60;5.83;;;8.50;81.20;;;;;;4975522;28;20184;-64
2020/12/15 07:57:42;;;;;;;7.63;5.40;;;8.60;73.60;;;;;;4975323;28;20187;-65
2020/12/15 08:00:08;;;;;;;7.43;4.95;;;8.60;72.60;;;;;;4975599;28;20227;-65
2020/12/15 08:02:34;;;;;;;8.82;7.00;;;8.70;75.10;;;;;;4975051;28;20172;-65
2020/12/15 08:05:09;;;;;;;7.38;6.20;;;8.70;65.70;;;;;;4974504;28;20625;-64
2020/12/15 08:07:39;;;;;;;6.93;6.22;;;8.80;58.00;;;;;;4975187;28;20218;-64
2020/12/15 08:10:05;;;;;;;7.78;6.10;;;8.80;44.60;;;;;;4975172;28;20179;-64
2020/12/15 08:12:33;;;;;;;6.88;5.93;;;8.70;35.70;;;;;;4979435;28;20183;-64
2020/12/15 08:14:58;;;;;;;7.40;5.63;;;8.70;42.00;;;;;;4976004;28;20287;-64
2020/12/15 08:17:25;;;;;;;7.97;5.30;;;8.80;38.20;;;;;;4983577;28;20270;-64
2020/12/15 08:19:50;;;;;;;7.43;5.50;;;8.60;41.60;;;;;;4976344;28;20207;-64
2020/12/15 08:22:19;;;;;;;9.63;7.97;;;8.60;53.20;;;;;;4976772;28;20492;-67
2020/12/15 08:24:50;;;;;;;69.07;33.28;;;8.70;66.00;;;;;;4975002;28;20176;-67
2020/12/15 08:27:16;;;;;;;10.25;6.93;;;8.70;74.70;;;;;;4975341;28;20255;-68
2020/12/15 08:29:41;;;;;;;10.93;6.53;;;8.70;84.50;;;;;;4975208;28;20283;-67
2020/12/15 08:32:08;;;;;;;7.80;6.40;;;8.70;90.10;;;;;;4983000;28;20466;-68
2020/12/15 08:34:34;;;;;;;8.00;5.63;;;8.60;91.80;;;;;;4994412;28;20171;-68
2020/12/15 08:37:01;;;;;;;8.95;6.13;;;8.60;95.70;;;;;;4993445;28;20179;-67
2020/12/15 08:39:32;;;;;;;8.95;5.40;;;8.70;98.40;;;;;;4985950;28;20180;-66
2020/12/15 08:41:59;;;;;;;8.60;6.10;;;8.80;97.90;;;;;;4975524;28;20188;-64
2020/12/15 08:44:26;;;;;;;6.25;5.65;;;8.80;93.00;;;;;;4975067;28;20488;-62
2020/12/15 08:46:56;;;;;;;9.93;6.80;;;8.90;95.70;;;;;;4974080;28;20198;-62
2020/12/15 08:49:23;;;;;;;13.75;10.07;;;9.10;97.20;;;;;;4974986;28;20338;-64
2020/12/15 08:51:50;;;;;;;16.38;10.20;;;9.30;84.80;;;;;;4974790;28;20674;-64
2020/12/15 08:54:19;;;;;;;22.20;12.77;;;9.20;45.50;;;;;;4974850;28;20211;-64
2020/12/15 08:56:45;;;;;;;15.18;9.88;;;9.20;26.50;;;;;;4974856;28;20184;-64
2020/12/15 08:59:13;;;;;;;27.53;13.90;;;9.20;9.10;;;;;;4973919;28;20258;-63
2020/12/15 09:01:39;;;;;;;13.90;8.95;;;9.20;6.00;;;;;;4974690;28;20474;-64
2020/12/15 09:04:05;;;;;;;19.50;11.90;;;9.10;1.00;;;;;;4974509;28;20176;-64
2020/12/15 09:06:32;;;;;;;21.80;14.10;;;9.20;1.00;;;;;;4974964;28;20180;-64
2020/12/15 09:08:58;;;;;;;13.57;9.23;;;9.20;1.00;;;;;;4974830;28;20212;-64
2020/12/15 09:11:23;;;;;;;11.90;9.17;;;9.20;1.00;;;;;;4974909;28;20223;-64
2020/12/15 09:13:53;;;;;;;15.90;7.30;;;9.30;1.00;;;;;;4974278;28;20580;-64
2020/12/15 09:16:26;;;;;;;9.95;7.32;;;9.20;1.00;;;;;;4974416;28;20184;-64
2020/12/15 09:19:26;;;;;;;7.43;6.30;;;9.10;1.00;;;;;;4973704;28;20242;-64
2020/12/15 09:25:14;;;;;;;8.18;6.20;;;9.40;1.00;;;;;;4970599;28;20722;-67
2020/12/15 09:27:44;;;;;;;9.48;6.38;;;9.60;1.00;;;;;;4974711;28;20564;-67
2020/12/15 09:30:12;;;;;;;9.30;6.63;;;10.00;1.00;;;;;;4978365;28;20246;-66
2020/12/15 09:32:38;;;;;;;8.07;6.85;;;10.20;1.00;;;;;;4978158;28;20645;-66
2020/12/15 09:35:04;;;;;;;10.13;6.50;;;10.30;1.00;;;;;;4980422;28;20605;-66
2020/12/15 09:37:30;;;;;;;12.60;9.40;;;10.40;1.00;;;;;;4978069;28;20215;-67
2020/12/15 09:39:57;;;;;;;11.00;8.87;;;10.40;1.00;;;;;;4977898;28;20506;-64
2020/12/15 09:42:24;;;;;;;32.40;22.73;;;10.30;1.00;;;;;;4977909;28;20182;-64
2020/12/15 09:44:51;;;;;;;15.90;9.90;;;10.20;1.00;;;;;;4977471;28;20180;-64
2020/12/15 09:47:16;;;;;;;7.25;6.55;;;10.20;1.00;;;;;;4977892;28;20176;-65
2020/12/15 09:49:42;;;;;;;8.97;8.00;;;10.40;1.00;;;;;;4977936;28;20492;-63
2020/12/15 09:52:07;;;;;;;7.60;6.80;;;10.50;1.00;;;;;;4977985;28;20252;-65
2020/12/15 09:54:33;;;;;;;7.10;6.20;;;10.60;1.00;;;;;;4977576;28;20279;-65
2020/12/15 09:56:58;;;;;;;8.50;6.80;;;10.40;1.00;;;;;;4976812;28;20180;-65
2020/12/15 09:59:24;;;;;;;10.33;6.50;;;10.20;1.00;;;;;;4975244;28;20588;-65
2020/12/15 10:01:50;;;;;;;7.63;6.70;;;10.20;1.00;;;;;;4977631;28;20293;-65
2020/12/15 10:04:15;;;;;;;8.50;7.67;;;10.40;1.00;;;;;;4976913;28;20522;-64
2020/12/15 10:06:43;;;;;;;15.87;12.10;;;10.40;1.00;;;;;;4977154;28;20247;-63
2020/12/15 10:09:09;;;;;;;12.23;9.35;;;10.70;1.00;;;;;;4977513;28;20176;-65
2020/12/15 10:11:34;;;;;;;8.10;6.47;;;10.90;1.00;;;;;;4977818;28;20184;-66
2020/12/15 10:14:03;;;;;;;8.70;7.03;;;11.00;99.90;;;;;;4976032;28;20254;-66
2020/12/15 10:16:29;;;;;;;10.73;6.57;;;10.80;99.90;;;;;;4976228;28;20625;-67
2020/12/15 10:18:54;;;;;;;7.83;6.17;;;10.80;99.90;;;;;;4978342;28;20183;-69
2020/12/15 10:21:20;;;;;;;9.20;6.50;;;10.70;99.90;;;;;;4977941;28;20196;-67
2020/12/15 10:23:47;;;;;;;6.27;5.63;;;10.70;99.90;;;;;;4977262;28;20240;-68
2020/12/15 10:26:18;;;;;;;6.82;5.80;;;10.50;99.90;;;;;;4977236;28;20551;-66
2020/12/15 10:28:44;;;;;;;6.57;5.65;;;10.30;99.90;;;;;;4977086;28;20320;-62
2020/12/15 10:31:10;;;;;;;6.95;6.18;;;10.10;1.00;;;;;;4976851;28;20231;-62
2020/12/15 10:33:36;;;;;;;6.37;5.67;;;10.10;1.00;;;;;;4977034;28;20506;-63
2020/12/15 10:36:03;;;;;;;10.60;6.23;;;10.40;1.00;;;;;;4974130;28;20196;-67
2020/12/15 10:38:28;;;;;;;7.35;6.43;;;10.40;1.00;;;;;;4977526;28;20231;-66
2020/12/15 10:40:54;;;;;;;10.20;7.77;;;10.40;1.00;;;;;;4975739;28;20258;-65
2020/12/15 10:43:19;;;;;;;7.37;6.30;;;10.30;1.00;;;;;;4976692;28;20259;-66
2020/12/15 10:45:45;;;;;;;7.87;6.20;;;10.40;1.00;;;;;;4977390;28;20184;-66
2020/12/15 10:48:11;;;;;;;7.37;5.80;;;10.50;1.00;;;;;;4977991;28;20188;-66
2020/12/15 10:50:36;;;;;;;7.13;5.50;;;10.40;1.00;;;;;;4980867;28;20435;-66
2020/12/15 10:53:04;;;;;;;6.83;6.13;;;10.40;1.00;;;;;;4983387;28;20179;-67
2020/12/15 10:55:29;;;;;;;7.50;6.50;;;10.70;1.00;;;;;;4975700;28;20617;-65
2020/12/15 10:57:55;;;;;;;7.27;5.70;;;11.00;1.00;;;;;;4984872;28;20190;-65
2020/12/15 11:00:20;;;;;;;9.13;6.50;;;11.00;1.00;;;;;;4976630;28;20680;-66
2020/12/15 11:02:46;;;;;;;8.47;6.10;;;11.00;99.90;;;;;;4976004;28;20194;-66
2020/12/15 11:05:11;;;;;;;8.10;7.30;;;11.10;99.90;;;;;;4979590;28;20331;-66
2020/12/15 11:07:37;;;;;;;31.83;19.73;;;11.20;99.90;;;;;;4995772;28;20553;-65
2020/12/15 11:10:02;;;;;;;14.70;9.57;;;11.40;99.90;;;;;;4995773;28;20536;-65
2020/12/15 11:12:28;;;;;;;6.70;5.70;;;11.10;99.90;;;;;;4976145;28;20202;-65
2020/12/15 11:14:53;;;;;;;7.67;6.30;;;10.80;99.90;;;;;;4976349;28;20184;-65
2020/12/15 11:17:19;;;;;;;8.57;5.77;;;10.80;99.90;;;;;;4976401;28;20286;-65
2020/12/15 11:19:45;;;;;;;10.13;7.93;;;10.80;99.90;;;;;;4976065;28;20278;-66
2020/12/15 11:22:10;;;;;;;7.30;5.70;;;10.90;99.90;;;;;;4979169;28;20194;-64
2020/12/15 11:24:36;;;;;;;9.27;7.33;;;10.90;99.90;;;;;;4994911;28;20184;-65
2020/12/15 11:27:02;;;;;;;8.15;6.07;;;11.00;99.90;;;;;;4995345;28;20183;-66
2020/12/15 11:29:28;;;;;;;6.40;5.57;;;10.90;99.90;;;;;;4975989;28;20193;-65
2020/12/15 11:31:54;;;;;;;7.93;6.10;;;10.80;99.90;;;;;;4975753;28;20188;-65
2020/12/15 11:34:20;;;;;;;6.17;5.57;;;10.80;99.90;;;;;;4975459;28;20227;-65
2020/12/15 11:36:46;;;;;;;30.17;17.20;;;10.80;99.90;;;;;;4974745;28;20202;-64
2020/12/15 11:39:12;;;;;;;10.73;6.30;;;10.80;99.90;;;;;;4975794;28;20179;-65
2020/12/15 11:41:38;;;;;;;8.80;7.47;;;10.70;99.90;;;;;;4975894;28;20500;-65
2020/12/15 11:44:05;;;;;;;7.78;6.97;;;10.70;99.90;;;;;;4975666;28;20428;-63
2020/12/15 11:46:31;;;;;;;8.80;7.03;;;10.70;1.00;;;;;;4975436;28;20173;-64
2020/12/15 11:48:56;;;;;;;9.17;7.17;;;10.90;1.00;;;;;;4974266;28;20601;-65
2020/12/15 11:51:22;;;;;;;7.80;6.93;;;10.70;99.90;;;;;;4975160;28;20614;-65
2020/12/15 11:53:47;;;;;;;6.73;6.03;;;10.80;1.00;;;;;;4976077;28;20188;-67
2020/12/15 11:56:19;;;;;;;7.73;6.60;;;10.90;1.00;;;;;;4976808;28;20251;-65
2020/12/15 11:58:45;;;;;;;8.40;6.85;;;10.80;99.90;;;;;;4994607;28;20231;-65
2020/12/15 12:01:12;;;;;;;9.50;6.30;;;10.80;99.90;;;;;;4994697;28;20282;-65
2020/12/15 12:03:38;;;;;;;9.57;6.70;;;10.70;99.90;;;;;;4975367;28;20192;-63
2020/12/15 12:06:03;;;;;;;9.97;7.27;;;10.60;1.00;;;;;;4975371;28;20227;-64
2020/12/15 12:08:29;;;;;;;7.67;6.43;;;10.70;1.00;;;;;;4975351;28;20494;-63
2020/12/15 12:10:55;;;;;;;6.60;5.87;;;10.80;1.00;;;;;;4975313;28;20510;-67
2020/12/15 12:13:21;;;;;;;9.63;7.43;;;11.00;1.00;;;;;;4975094;28;20222;-66
2020/12/15 12:15:46;;;;;;;10.67;6.60;;;10.80;1.00;;;;;;4972466;28;20184;-65
2020/12/15 12:18:12;;;;;;;8.13;6.50;;;10.70;1.00;;;;;;4975162;28;20187;-66
2020/12/15 12:20:38;;;;;;;17.40;11.47;;;10.60;1.00;;;;;;4974960;28;20625;-66
2020/12/15 12:23:04;;;;;;;19.57;14.80;;;10.50;1.00;;;;;;4975151;28;20283;-67
2020/12/15 12:25:30;;;;;;;10.07;6.65;;;10.50;1.00;;;;;;4974794;28;20263;-67
2020/12/15 12:27:56;;;;;;;8.97;6.60;;;10.50;1.00;;;;;;4975126;28;20623;-66
2020/12/15 12:30:22;;;;;;;7.97;7.05;;;10.50;1.00;;;;;;4975094;28;20220;-66
2020/12/15 12:32:49;;;;;;;7.93;6.90;;;10.60;1.00;;;;;;4975905;28;20263;-67
2020/12/15 12:35:15;;;;;;;7.45;5.85;;;10.50;1.00;;;;;;4973679;28;20983;-66
2020/12/15 12:37:41;;;;;;;8.85;7.05;;;10.40;1.00;;;;;;4975071;28;20222;-65
2020/12/15 12:40:07;;;;;;;10.37;7.40;;;10.40;1.00;;;;;;4975001;28;20287;-65
2020/12/15 12:42:32;;;;;;;7.60;6.80;;;10.40;1.00;;;;;;4973721;28;20211;-64
2020/12/15 12:44:58;;;;;;;9.13;6.73;;;10.50;1.00;;;;;;4974863;28;20187;-65
2020/12/15 12:47:24;;;;;;;8.93;6.73;;;10.40;1.00;;;;;;4974926;28;20180;-65
2020/12/15 12:49:49;;;;;;;7.90;6.83;;;10.50;1.00;;;;;;4974904;28;20502;-66
2020/12/15 12:52:15;;;;;;;112.47;56.93;;;10.50;1.00;;;;;;4975039;28;20180;-65
2020/12/15 12:54:40;;;;;;;12.43;8.80;;;10.50;1.00;;;;;;4974880;28;20176;-66
2020/12/15 12:57:06;;;;;;;8.13;6.37;;;10.50;1.00;;;;;;4974775;28;20176;-64
2020/12/15 12:59:31;;;;;;;9.97;7.00;;;10.60;1.00;;;;;;4971890;28;20208;-65
2020/12/15 13:02:01;;;;;;;10.00;7.90;;;10.70;1.00;;;;;;4973260;28;20610;-64